sensor_id;sensor_type;location;lat;lon;timestamp;P1;durP1;ratioP1;P2;durP2;ratioP2
69188;SDS011;56302;52.322;5.926;2023-03-31T00:01:46;14.95;;;2.58;;
69188;SDS011;56302;52.322;5.926;2023-03-31T00:04:12;13.30;;;2.33;;
69188;SDS011;56302;52.322;5.926;2023-03-31T00:06:38;13.02;;;2.47;;
69188;SDS011;56302;52.322;5.926;2023-03-31T00:09:15;13.98;;;2.35;;
69188;SDS011;56302;52.322;5.926;2023-03-31T00:11:46;11.00;;;2.78;;
69188;SDS011;56302;52.322;5.926;2023-03-31T00:14:15;13.35;;;2.50;;
69188;SDS011;56302;52.322;5.926;2023-03-31T00:16:42;15.85;;;3.00;;
69188;SDS011;56302;52.322;5.926;2023-03-31T00:19:09;16.23;;;2.77;;
69188;SDS011;56302;52.322;5.926;2023-03-31T00:21:41;19.73;;;3.03;;
69188;SDS011;56302;52.322;5.926;2023-03-31T00:24:08;10.40;;;2.30;;
69188;SDS011;56302;52.322;5.926;2023-03-31T00:26:35;13.93;;;2.80;;
69188;SDS011;56302;52.322;5.926;2023-03-31T00:29:01;13.15;;;2.70;;
69188;SDS011;56302;52.322;5.926;2023-03-31T00:31:28;10.20;;;2.40;;
69188;SDS011;56302;52.322;5.926;2023-03-31T00:33:54;12.32;;;2.95;;
69188;SDS011;56302;52.322;5.926;2023-03-31T00:36:21;10.45;;;2.80;;
69188;SDS011;56302;52.322;5.926;2023-03-31T00:38:52;14.30;;;2.40;;
69188;SDS011;56302;52.322;5.926;2023-03-31T00:41:18;12.35;;;1.92;;
69188;SDS011;56302;52.322;5.926;2023-03-31T00:44:05;11.32;;;2.50;;
69188;SDS011;56302;52.322;5.926;2023-03-31T00:46:44;12.73;;;2.50;;
69188;SDS011;56302;52.322;5.926;2023-03-31T00:49:26;10.40;;;2.30;;
69188;SDS011;56302;52.322;5.926;2023-03-31T00:51:56;13.30;;;2.37;;
69188;SDS011;56302;52.322;5.926;2023-03-31T00:54:27;14.07;;;2.25;;
69188;SDS011;56302;52.322;5.926;2023-03-31T00:56:54;9.50;;;1.90;;
69188;SDS011;56302;52.322;5.926;2023-03-31T00:59:23;12.85;;;2.38;;
69188;SDS011;56302;52.322;5.926;2023-03-31T01:01:52;9.75;;;2.28;;
69188;SDS011;56302;52.322;5.926;2023-03-31T01:04:23;9.70;;;2.27;;
69188;SDS011;56302;52.322;5.926;2023-03-31T01:07:01;8.75;;;1.98;;
69188;SDS011;56302;52.322;5.926;2023-03-31T01:09:40;10.35;;;2.50;;
69188;SDS011;56302;52.322;5.926;2023-03-31T01:12:11;13.27;;;2.13;;
69188;SDS011;56302;52.322;5.926;2023-03-31T01:14:37;8.95;;;2.30;;
69188;SDS011;56302;52.322;5.926;2023-03-31T01:17:03;11.50;;;2.53;;
69188;SDS011;56302;52.322;5.926;2023-03-31T01:28:04;13.60;;;2.60;;
69188;SDS011;56302;52.322;5.926;2023-03-31T01:44:44;11.00;;;2.33;;
69188;SDS011;56302;52.322;5.926;2023-03-31T01:47:31;7.13;;;2.25;;
69188;SDS011;56302;52.322;5.926;2023-03-31T01:50:08;7.53;;;2.13;;
69188;SDS011;56302;52.322;5.926;2023-03-31T01:52:45;9.75;;;2.47;;
69188;SDS011;56302;52.322;5.926;2023-03-31T01:55:25;11.47;;;2.80;;
69188;SDS011;56302;52.322;5.926;2023-03-31T01:58:01;9.60;;;3.13;;
69188;SDS011;56302;52.322;5.926;2023-03-31T02:00:37;14.90;;;3.25;;
69188;SDS011;56302;52.322;5.926;2023-03-31T02:03:16;8.95;;;3.08;;
69188;SDS011;56302;52.322;5.926;2023-03-31T02:05:49;13.05;;;3.10;;
69188;SDS011;56302;52.322;5.926;2023-03-31T02:08:22;10.30;;;3.40;;
69188;SDS011;56302;52.322;5.926;2023-03-31T02:10:53;10.48;;;3.30;;
69188;SDS011;56302;52.322;5.926;2023-03-31T02:13:19;9.80;;;3.13;;
69188;SDS011;56302;52.322;5.926;2023-03-31T02:15:50;9.63;;;3.13;;
69188;SDS011;56302;52.322;5.926;2023-03-31T02:18:22;8.93;;;3.67;;
69188;SDS011;56302;52.322;5.926;2023-03-31T02:20:54;13.57;;;3.07;;
69188;SDS011;56302;52.322;5.926;2023-03-31T02:23:23;8.07;;;2.63;;
69188;SDS011;56302;52.322;5.926;2023-03-31T02:25:54;12.15;;;2.88;;
69188;SDS011;56302;52.322;5.926;2023-03-31T02:28:26;9.80;;;3.00;;
69188;SDS011;56302;52.322;5.926;2023-03-31T02:33:50;9.97;;;2.40;;
69188;SDS011;56302;52.322;5.926;2023-03-31T02:36:16;10.35;;;2.60;;
69188;SDS011;56302;52.322;5.926;2023-03-31T02:38:44;8.27;;;2.03;;
69188;SDS011;56302;52.322;5.926;2023-03-31T02:41:13;12.67;;;2.03;;
69188;SDS011;56302;52.322;5.926;2023-03-31T02:43:38;8.15;;;1.90;;
69188;SDS011;56302;52.322;5.926;2023-03-31T02:46:04;10.53;;;2.47;;
69188;SDS011;56302;52.322;5.926;2023-03-31T02:48:31;9.30;;;2.67;;
69188;SDS011;56302;52.322;5.926;2023-03-31T02:56:43;6.72;;;2.50;;
69188;SDS011;56302;52.322;5.926;2023-03-31T03:02:04;8.50;;;2.53;;
69188;SDS011;56302;52.322;5.926;2023-03-31T03:13:25;10.20;;;2.80;;
69188;SDS011;56302;52.322;5.926;2023-03-31T03:15:42;11.63;;;2.80;;
69188;SDS011;56302;52.322;5.926;2023-03-31T03:18:11;7.95;;;2.08;;
69188;SDS011;56302;52.322;5.926;2023-03-31T03:20:38;10.60;;;2.85;;
69188;SDS011;56302;52.322;5.926;2023-03-31T03:23:06;13.93;;;3.10;;
69188;SDS011;56302;52.322;5.926;2023-03-31T03:25:32;12.03;;;2.80;;
69188;SDS011;56302;52.322;5.926;2023-03-31T03:27:58;10.25;;;2.72;;
69188;SDS011;56302;52.322;5.926;2023-03-31T03:30:23;11.98;;;3.13;;
69188;SDS011;56302;52.322;5.926;2023-03-31T03:32:49;11.80;;;2.53;;
69188;SDS011;56302;52.322;5.926;2023-03-31T03:35:14;9.87;;;2.77;;
69188;SDS011;56302;52.322;5.926;2023-03-31T03:37:40;10.52;;;2.30;;
69188;SDS011;56302;52.322;5.926;2023-03-31T03:40:06;10.77;;;2.70;;
69188;SDS011;56302;52.322;5.926;2023-03-31T03:42:32;8.88;;;2.40;;
69188;SDS011;56302;52.322;5.926;2023-03-31T03:44:59;9.60;;;2.20;;
69188;SDS011;56302;52.322;5.926;2023-03-31T03:47:25;9.88;;;2.67;;
69188;SDS011;56302;52.322;5.926;2023-03-31T03:49:51;6.97;;;1.97;;
69188;SDS011;56302;52.322;5.926;2023-03-31T03:52:16;14.27;;;2.60;;
69188;SDS011;56302;52.322;5.926;2023-03-31T03:54:42;7.43;;;2.07;;
69188;SDS011;56302;52.322;5.926;2023-03-31T03:57:08;8.63;;;2.53;;
69188;SDS011;56302;52.322;5.926;2023-03-31T03:59:33;8.68;;;2.50;;
69188;SDS011;56302;52.322;5.926;2023-03-31T04:01:58;8.47;;;2.00;;
69188;SDS011;56302;52.322;5.926;2023-03-31T04:04:24;6.47;;;2.27;;
69188;SDS011;56302;52.322;5.926;2023-03-31T04:06:50;9.45;;;2.33;;
69188;SDS011;56302;52.322;5.926;2023-03-31T04:09:16;9.73;;;1.73;;
69188;SDS011;56302;52.322;5.926;2023-03-31T04:11:41;5.53;;;1.63;;
69188;SDS011;56302;52.322;5.926;2023-03-31T04:14:07;12.23;;;2.87;;
69188;SDS011;56302;52.322;5.926;2023-03-31T04:16:33;6.80;;;1.98;;
69188;SDS011;56302;52.322;5.926;2023-03-31T04:18:58;6.35;;;2.08;;
69188;SDS011;56302;52.322;5.926;2023-03-31T04:21:27;8.88;;;2.08;;
69188;SDS011;56302;52.322;5.926;2023-03-31T04:23:54;11.27;;;1.90;;
69188;SDS011;56302;52.322;5.926;2023-03-31T04:26:26;9.55;;;2.20;;
69188;SDS011;56302;52.322;5.926;2023-03-31T04:29:03;8.20;;;2.28;;
69188;SDS011;56302;52.322;5.926;2023-03-31T04:31:32;12.02;;;2.35;;
69188;SDS011;56302;52.322;5.926;2023-03-31T04:33:58;7.70;;;1.90;;
69188;SDS011;56302;52.322;5.926;2023-03-31T04:36:26;6.23;;;1.70;;
69188;SDS011;56302;52.322;5.926;2023-03-31T04:38:53;9.50;;;1.85;;
69188;SDS011;56302;52.322;5.926;2023-03-31T04:41:22;6.18;;;1.70;;
69188;SDS011;56302;52.322;5.926;2023-03-31T04:43:48;7.75;;;2.00;;
69188;SDS011;56302;52.322;5.926;2023-03-31T04:46:14;4.93;;;1.30;;
69188;SDS011;56302;52.322;5.926;2023-03-31T04:48:40;6.88;;;1.77;;
69188;SDS011;56302;52.322;5.926;2023-03-31T04:51:05;8.60;;;1.93;;
69188;SDS011;56302;52.322;5.926;2023-03-31T04:53:31;5.07;;;1.83;;
69188;SDS011;56302;52.322;5.926;2023-03-31T04:55:57;5.87;;;1.60;;
69188;SDS011;56302;52.322;5.926;2023-03-31T04:58:23;5.32;;;1.60;;
69188;SDS011;56302;52.322;5.926;2023-03-31T05:00:49;6.50;;;1.60;;
69188;SDS011;56302;52.322;5.926;2023-03-31T05:03:15;10.13;;;1.40;;
69188;SDS011;56302;52.322;5.926;2023-03-31T05:05:40;7.10;;;1.57;;
69188;SDS011;56302;52.322;5.926;2023-03-31T05:08:06;5.00;;;1.17;;
69188;SDS011;56302;52.322;5.926;2023-03-31T05:10:32;10.83;;;2.33;;
69188;SDS011;56302;52.322;5.926;2023-03-31T05:12:57;8.93;;;1.90;;
69188;SDS011;56302;52.322;5.926;2023-03-31T05:15:23;9.68;;;2.30;;
69188;SDS011;56302;52.322;5.926;2023-03-31T05:17:49;10.30;;;2.37;;
69188;SDS011;56302;52.322;5.926;2023-03-31T05:20:16;6.43;;;1.92;;
69188;SDS011;56302;52.322;5.926;2023-03-31T05:22:43;7.20;;;1.92;;
69188;SDS011;56302;52.322;5.926;2023-03-31T05:25:09;7.63;;;2.20;;
69188;SDS011;56302;52.322;5.926;2023-03-31T05:27:38;10.13;;;2.38;;
69188;SDS011;56302;52.322;5.926;2023-03-31T05:30:04;7.73;;;2.33;;
69188;SDS011;56302;52.322;5.926;2023-03-31T05:32:32;5.85;;;2.40;;
69188;SDS011;56302;52.322;5.926;2023-03-31T05:34:58;7.55;;;2.40;;
69188;SDS011;56302;52.322;5.926;2023-03-31T05:37:24;8.35;;;2.50;;
69188;SDS011;56302;52.322;5.926;2023-03-31T05:39:50;8.07;;;2.22;;
69188;SDS011;56302;52.322;5.926;2023-03-31T05:42:16;5.73;;;2.07;;
69188;SDS011;56302;52.322;5.926;2023-03-31T05:44:42;7.13;;;1.60;;
69188;SDS011;56302;52.322;5.926;2023-03-31T05:47:08;8.73;;;2.17;;
69188;SDS011;56302;52.322;5.926;2023-03-31T05:49:33;8.02;;;2.28;;
69188;SDS011;56302;52.322;5.926;2023-03-31T05:51:59;8.40;;;2.13;;
69188;SDS011;56302;52.322;5.926;2023-03-31T05:54:25;9.52;;;2.40;;
69188;SDS011;56302;52.322;5.926;2023-03-31T05:56:51;11.30;;;2.17;;
69188;SDS011;56302;52.322;5.926;2023-03-31T05:59:18;10.87;;;2.60;;
69188;SDS011;56302;52.322;5.926;2023-03-31T06:01:43;6.63;;;2.08;;
69188;SDS011;56302;52.322;5.926;2023-03-31T06:04:09;6.57;;;1.80;;
69188;SDS011;56302;52.322;5.926;2023-03-31T06:06:34;8.38;;;1.70;;
69188;SDS011;56302;52.322;5.926;2023-03-31T06:09:02;6.60;;;1.57;;
69188;SDS011;56302;52.322;5.926;2023-03-31T06:11:28;7.35;;;2.40;;
69188;SDS011;56302;52.322;5.926;2023-03-31T06:13:53;7.03;;;2.20;;
69188;SDS011;56302;52.322;5.926;2023-03-31T06:16:19;9.45;;;2.55;;
69188;SDS011;56302;52.322;5.926;2023-03-31T06:18:45;6.97;;;1.80;;
69188;SDS011;56302;52.322;5.926;2023-03-31T06:21:15;12.75;;;2.08;;
69188;SDS011;56302;52.322;5.926;2023-03-31T06:23:42;9.02;;;1.90;;
69188;SDS011;56302;52.322;5.926;2023-03-31T06:26:14;6.73;;;1.63;;
69188;SDS011;56302;52.322;5.926;2023-03-31T06:28:41;9.30;;;1.80;;
69188;SDS011;56302;52.322;5.926;2023-03-31T06:31:08;6.85;;;1.80;;
69188;SDS011;56302;52.322;5.926;2023-03-31T06:33:39;9.48;;;1.50;;
69188;SDS011;56302;52.322;5.926;2023-03-31T06:36:07;10.13;;;1.88;;
69188;SDS011;56302;52.322;5.926;2023-03-31T06:38:34;7.80;;;2.00;;
69188;SDS011;56302;52.322;5.926;2023-03-31T06:41:02;6.32;;;1.75;;
69188;SDS011;56302;52.322;5.926;2023-03-31T06:43:28;9.27;;;1.77;;
69188;SDS011;56302;52.322;5.926;2023-03-31T06:45:54;9.15;;;2.00;;
69188;SDS011;56302;52.322;5.926;2023-03-31T06:48:21;6.85;;;1.80;;
69188;SDS011;56302;52.322;5.926;2023-03-31T06:50:49;8.68;;;1.95;;
69188;SDS011;56302;52.322;5.926;2023-03-31T06:53:14;9.18;;;1.88;;
69188;SDS011;56302;52.322;5.926;2023-03-31T06:55:40;5.83;;;1.70;;
69188;SDS011;56302;52.322;5.926;2023-03-31T06:58:05;10.70;;;1.67;;
69188;SDS011;56302;52.322;5.926;2023-03-31T07:00:32;6.75;;;1.73;;
69188;SDS011;56302;52.322;5.926;2023-03-31T07:02:58;4.97;;;1.70;;
69188;SDS011;56302;52.322;5.926;2023-03-31T07:05:24;7.37;;;1.50;;
69188;SDS011;56302;52.322;5.926;2023-03-31T07:07:56;7.82;;;1.67;;
69188;SDS011;56302;52.322;5.926;2023-03-31T07:10:23;7.65;;;1.67;;
69188;SDS011;56302;52.322;5.926;2023-03-31T07:12:50;6.28;;;1.77;;
69188;SDS011;56302;52.322;5.926;2023-03-31T07:15:16;6.43;;;1.70;;
69188;SDS011;56302;52.322;5.926;2023-03-31T07:17:42;5.95;;;2.08;;
69188;SDS011;56302;52.322;5.926;2023-03-31T07:20:08;8.07;;;1.90;;
69188;SDS011;56302;52.322;5.926;2023-03-31T07:22:39;5.43;;;1.40;;
69188;SDS011;56302;52.322;5.926;2023-03-31T07:25:05;6.90;;;1.70;;
69188;SDS011;56302;52.322;5.926;2023-03-31T07:27:35;5.85;;;1.88;;
69188;SDS011;56302;52.322;5.926;2023-03-31T07:30:05;6.90;;;1.67;;
69188;SDS011;56302;52.322;5.926;2023-03-31T07:32:31;4.72;;;1.63;;
69188;SDS011;56302;52.322;5.926;2023-03-31T07:34:57;7.97;;;1.60;;
69188;SDS011;56302;52.322;5.926;2023-03-31T07:37:23;5.28;;;1.60;;
69188;SDS011;56302;52.322;5.926;2023-03-31T07:39:49;5.87;;;1.53;;
69188;SDS011;56302;52.322;5.926;2023-03-31T07:42:14;7.78;;;1.90;;
69188;SDS011;56302;52.322;5.926;2023-03-31T07:44:41;3.43;;;1.30;;
69188;SDS011;56302;52.322;5.926;2023-03-31T07:47:07;5.25;;;1.50;;
69188;SDS011;56302;52.322;5.926;2023-03-31T07:49:32;6.13;;;1.40;;
69188;SDS011;56302;52.322;5.926;2023-03-31T07:51:59;7.90;;;1.60;;
69188;SDS011;56302;52.322;5.926;2023-03-31T07:54:25;4.75;;;1.50;;
69188;SDS011;56302;52.322;5.926;2023-03-31T07:56:51;6.17;;;1.17;;
69188;SDS011;56302;52.322;5.926;2023-03-31T07:59:17;5.60;;;1.00;;
69188;SDS011;56302;52.322;5.926;2023-03-31T08:01:42;4.87;;;1.30;;
69188;SDS011;56302;52.322;5.926;2023-03-31T08:04:08;6.22;;;1.25;;
69188;SDS011;56302;52.322;5.926;2023-03-31T08:06:35;3.20;;;1.20;;
69188;SDS011;56302;52.322;5.926;2023-03-31T08:09:01;6.15;;;1.65;;
69188;SDS011;56302;52.322;5.926;2023-03-31T08:11:29;4.47;;;1.10;;
69188;SDS011;56302;52.322;5.926;2023-03-31T08:13:55;5.55;;;1.60;;
69188;SDS011;56302;52.322;5.926;2023-03-31T08:16:20;3.35;;;1.13;;
69188;SDS011;56302;52.322;5.926;2023-03-31T08:18:46;7.93;;;1.50;;
69188;SDS011;56302;52.322;5.926;2023-03-31T08:21:12;3.97;;;1.25;;
69188;SDS011;56302;52.322;5.926;2023-03-31T08:23:37;4.43;;;1.57;;
69188;SDS011;56302;52.322;5.926;2023-03-31T08:28:36;4.73;;;1.10;;
69188;SDS011;56302;52.322;5.926;2023-03-31T08:31:02;3.28;;;1.05;;
69188;SDS011;56302;52.322;5.926;2023-03-31T08:33:32;4.47;;;1.20;;
69188;SDS011;56302;52.322;5.926;2023-03-31T08:36:04;5.45;;;1.25;;
69188;SDS011;56302;52.322;5.926;2023-03-31T08:38:33;4.75;;;0.90;;
69188;SDS011;56302;52.322;5.926;2023-03-31T08:41:02;6.43;;;1.17;;
69188;SDS011;56302;52.322;5.926;2023-03-31T08:43:40;5.00;;;1.10;;
69188;SDS011;56302;52.322;5.926;2023-03-31T08:46:09;5.32;;;1.60;;
69188;SDS011;56302;52.322;5.926;2023-03-31T08:48:41;5.05;;;1.30;;
69188;SDS011;56302;52.322;5.926;2023-03-31T08:54:15;6.57;;;1.38;;
69188;SDS011;56302;52.322;5.926;2023-03-31T08:56:45;7.95;;;1.40;;
69188;SDS011;56302;52.322;5.926;2023-03-31T08:59:19;6.35;;;1.30;;
69188;SDS011;56302;52.322;5.926;2023-03-31T09:01:59;5.22;;;1.10;;
69188;SDS011;56302;52.322;5.926;2023-03-31T09:04:52;5.40;;;1.10;;
69188;SDS011;56302;52.322;5.926;2023-03-31T09:07:51;8.40;;;1.70;;
69188;SDS011;56302;52.322;5.926;2023-03-31T09:10:40;7.93;;;1.52;;
69188;SDS011;56302;52.322;5.926;2023-03-31T09:19:01;5.90;;;1.20;;
69188;SDS011;56302;52.322;5.926;2023-03-31T09:21:28;5.25;;;1.38;;
69188;SDS011;56302;52.322;5.926;2023-03-31T09:23:57;5.43;;;1.30;;
69188;SDS011;56302;52.322;5.926;2023-03-31T09:26:38;7.60;;;1.80;;
69188;SDS011;56302;52.322;5.926;2023-03-31T09:29:18;4.78;;;1.38;;
69188;SDS011;56302;52.322;5.926;2023-03-31T09:31:48;6.25;;;1.10;;
69188;SDS011;56302;52.322;5.926;2023-03-31T09:34:16;3.65;;;1.25;;
69188;SDS011;56302;52.322;5.926;2023-03-31T09:36:49;5.53;;;1.30;;
69188;SDS011;56302;52.322;5.926;2023-03-31T09:39:14;4.87;;;1.60;;
69188;SDS011;56302;52.322;5.926;2023-03-31T09:41:42;6.60;;;1.80;;
69188;SDS011;56302;52.322;5.926;2023-03-31T09:44:20;7.43;;;1.50;;
69188;SDS011;56302;52.322;5.926;2023-03-31T09:46:48;9.90;;;1.83;;
69188;SDS011;56302;52.322;5.926;2023-03-31T09:49:16;10.85;;;2.03;;
69188;SDS011;56302;52.322;5.926;2023-03-31T09:51:46;9.10;;;2.10;;
69188;SDS011;56302;52.322;5.926;2023-03-31T09:54:23;12.18;;;2.30;;
69188;SDS011;56302;52.322;5.926;2023-03-31T09:56:53;8.50;;;2.13;;
69188;SDS011;56302;52.322;5.926;2023-03-31T09:59:29;8.80;;;2.30;;
69188;SDS011;56302;52.322;5.926;2023-03-31T10:01:57;11.32;;;2.33;;
69188;SDS011;56302;52.322;5.926;2023-03-31T10:04:27;12.15;;;2.65;;
69188;SDS011;56302;52.322;5.926;2023-03-31T10:06:54;9.27;;;2.35;;
69188;SDS011;56302;52.322;5.926;2023-03-31T10:09:23;11.77;;;2.80;;
69188;SDS011;56302;52.322;5.926;2023-03-31T10:11:52;11.23;;;2.17;;
69188;SDS011;56302;52.322;5.926;2023-03-31T10:17:11;14.38;;;2.25;;
69188;SDS011;56302;52.322;5.926;2023-03-31T10:19:42;10.68;;;3.00;;
69188;SDS011;56302;52.322;5.926;2023-03-31T10:24:48;11.52;;;2.90;;
69188;SDS011;56302;52.322;5.926;2023-03-31T10:29:58;16.55;;;2.85;;
69188;SDS011;56302;52.322;5.926;2023-03-31T10:32:29;11.65;;;3.22;;
69188;SDS011;56302;52.322;5.926;2023-03-31T10:34:57;11.38;;;2.47;;
69188;SDS011;56302;52.322;5.926;2023-03-31T10:37:30;12.13;;;2.67;;
69188;SDS011;56302;52.322;5.926;2023-03-31T10:39:58;11.35;;;3.25;;
69188;SDS011;56302;52.322;5.926;2023-03-31T10:42:26;13.93;;;2.58;;
69188;SDS011;56302;52.322;5.926;2023-03-31T10:47:38;11.55;;;2.55;;
69188;SDS011;56302;52.322;5.926;2023-03-31T10:50:08;13.20;;;3.13;;
69188;SDS011;56302;52.322;5.926;2023-03-31T10:52:45;15.45;;;3.05;;
69188;SDS011;56302;52.322;5.926;2023-03-31T10:55:13;9.90;;;2.90;;
69188;SDS011;56302;52.322;5.926;2023-03-31T10:57:48;14.77;;;3.30;;
69188;SDS011;56302;52.322;5.926;2023-03-31T11:00:36;12.38;;;3.10;;
69188;SDS011;56302;52.322;5.926;2023-03-31T11:06:02;13.48;;;2.63;;
69188;SDS011;56302;52.322;5.926;2023-03-31T11:11:43;15.60;;;3.05;;
69188;SDS011;56302;52.322;5.926;2023-03-31T11:15:29;10.82;;;2.75;;
69188;SDS011;56302;52.322;5.926;2023-03-31T11:23:32;11.30;;;2.70;;
69188;SDS011;56302;52.322;5.926;2023-03-31T11:28:41;11.77;;;2.30;;
69188;SDS011;56302;52.322;5.926;2023-03-31T11:42:05;11.70;;;2.50;;
69188;SDS011;56302;52.322;5.926;2023-03-31T11:44:44;11.25;;;2.28;;
69188;SDS011;56302;52.322;5.926;2023-03-31T11:47:21;8.18;;;2.20;;
69188;SDS011;56302;52.322;5.926;2023-03-31T11:49:51;12.57;;;2.63;;
69188;SDS011;56302;52.322;5.926;2023-03-31T11:52:30;10.45;;;2.28;;
69188;SDS011;56302;52.322;5.926;2023-03-31T11:54:59;9.23;;;2.47;;
69188;SDS011;56302;52.322;5.926;2023-03-31T11:57:38;11.10;;;2.60;;
69188;SDS011;56302;52.322;5.926;2023-03-31T12:00:26;11.55;;;2.50;;
69188;SDS011;56302;52.322;5.926;2023-03-31T12:03:13;10.55;;;2.15;;
69188;SDS011;56302;52.322;5.926;2023-03-31T12:06:02;9.98;;;2.17;;
69188;SDS011;56302;52.322;5.926;2023-03-31T12:08:42;10.07;;;2.25;;
69188;SDS011;56302;52.322;5.926;2023-03-31T12:11:28;12.60;;;2.17;;
69188;SDS011;56302;52.322;5.926;2023-03-31T12:14:02;10.18;;;2.13;;
69188;SDS011;56302;52.322;5.926;2023-03-31T12:17:12;7.35;;;2.40;;
69188;SDS011;56302;52.322;5.926;2023-03-31T12:22:23;9.30;;;1.88;;
69188;SDS011;56302;52.322;5.926;2023-03-31T12:25:02;11.25;;;2.30;;
69188;SDS011;56302;52.322;5.926;2023-03-31T12:27:36;13.23;;;2.45;;
69188;SDS011;56302;52.322;5.926;2023-03-31T12:30:14;9.65;;;2.28;;
69188;SDS011;56302;52.322;5.926;2023-03-31T12:33:04;10.32;;;1.92;;
69188;SDS011;56302;52.322;5.926;2023-03-31T12:35:49;12.70;;;2.55;;
69188;SDS011;56302;52.322;5.926;2023-03-31T12:51:42;14.35;;;2.60;;
69188;SDS011;56302;52.322;5.926;2023-03-31T12:59:38;9.67;;;2.17;;
69188;SDS011;56302;52.322;5.926;2023-03-31T13:04:36;10.90;;;2.30;;
69188;SDS011;56302;52.322;5.926;2023-03-31T13:07:03;7.70;;;2.00;;
69188;SDS011;56302;52.322;5.926;2023-03-31T13:09:43;11.80;;;2.40;;
69188;SDS011;56302;52.322;5.926;2023-03-31T13:12:14;11.98;;;2.00;;
69188;SDS011;56302;52.322;5.926;2023-03-31T13:14:46;12.52;;;2.38;;
69188;SDS011;56302;52.322;5.926;2023-03-31T13:17:46;16.10;;;3.08;;
69188;SDS011;56302;52.322;5.926;2023-03-31T13:20:39;14.07;;;2.85;;
69188;SDS011;56302;52.322;5.926;2023-03-31T13:28:16;10.40;;;2.10;;
69188;SDS011;56302;52.322;5.926;2023-03-31T13:30:54;12.27;;;2.80;;
69188;SDS011;56302;52.322;5.926;2023-03-31T13:39:12;9.55;;;2.13;;
69188;SDS011;56302;52.322;5.926;2023-03-31T13:45:17;13.57;;;2.55;;
69188;SDS011;56302;52.322;5.926;2023-03-31T13:48:19;9.63;;;2.50;;
69188;SDS011;56302;52.322;5.926;2023-03-31T13:59:18;11.70;;;2.90;;
69188;SDS011;56302;52.322;5.926;2023-03-31T14:07:53;8.70;;;2.45;;
69188;SDS011;56302;52.322;5.926;2023-03-31T14:10:27;7.72;;;2.42;;
69188;SDS011;56302;52.322;5.926;2023-03-31T14:13:09;12.23;;;2.58;;
69188;SDS011;56302;52.322;5.926;2023-03-31T14:18:25;11.05;;;2.15;;
69188;SDS011;56302;52.322;5.926;2023-03-31T14:24:04;9.02;;;2.67;;
69188;SDS011;56302;52.322;5.926;2023-03-31T14:26:42;13.80;;;3.60;;
69188;SDS011;56302;52.322;5.926;2023-03-31T14:37:43;8.77;;;2.20;;
69188;SDS011;56302;52.322;5.926;2023-03-31T14:40:12;9.55;;;2.50;;
69188;SDS011;56302;52.322;5.926;2023-03-31T14:42:40;8.93;;;2.20;;
69188;SDS011;56302;52.322;5.926;2023-03-31T14:45:23;10.80;;;2.17;;
69188;SDS011;56302;52.322;5.926;2023-03-31T14:47:57;13.15;;;2.10;;
69188;SDS011;56302;52.322;5.926;2023-03-31T14:50:32;12.35;;;2.50;;
69188;SDS011;56302;52.322;5.926;2023-03-31T14:52:58;11.95;;;2.58;;
69188;SDS011;56302;52.322;5.926;2023-03-31T14:55:26;9.32;;;2.53;;
69188;SDS011;56302;52.322;5.926;2023-03-31T14:57:54;8.48;;;2.63;;
69188;SDS011;56302;52.322;5.926;2023-03-31T15:00:24;6.07;;;1.70;;
69188;SDS011;56302;52.322;5.926;2023-03-31T15:02:51;5.53;;;2.25;;
69188;SDS011;56302;52.322;5.926;2023-03-31T15:05:29;9.40;;;1.95;;
69188;SDS011;56302;52.322;5.926;2023-03-31T15:08:19;6.85;;;2.00;;
69188;SDS011;56302;52.322;5.926;2023-03-31T15:10:50;6.82;;;1.75;;
69188;SDS011;56302;52.322;5.926;2023-03-31T15:16:17;9.00;;;1.90;;
69188;SDS011;56302;52.322;5.926;2023-03-31T15:18:43;7.28;;;1.50;;
69188;SDS011;56302;52.322;5.926;2023-03-31T15:21:17;7.05;;;1.75;;
69188;SDS011;56302;52.322;5.926;2023-03-31T15:23:52;5.82;;;1.80;;
69188;SDS011;56302;52.322;5.926;2023-03-31T15:26:20;5.25;;;1.52;;
69188;SDS011;56302;52.322;5.926;2023-03-31T15:28:51;5.75;;;1.40;;
69188;SDS011;56302;52.322;5.926;2023-03-31T15:31:21;4.97;;;1.58;;
69188;SDS011;56302;52.322;5.926;2023-03-31T15:33:48;6.30;;;1.80;;
69188;SDS011;56302;52.322;5.926;2023-03-31T15:36:14;5.88;;;1.90;;
69188;SDS011;56302;52.322;5.926;2023-03-31T15:38:40;7.05;;;1.70;;
69188;SDS011;56302;52.322;5.926;2023-03-31T15:41:12;5.63;;;1.83;;
69188;SDS011;56302;52.322;5.926;2023-03-31T15:46:19;3.97;;;1.55;;
69188;SDS011;56302;52.322;5.926;2023-03-31T15:48:57;5.80;;;1.88;;
69188;SDS011;56302;52.322;5.926;2023-03-31T15:51:34;7.97;;;1.60;;
69188;SDS011;56302;52.322;5.926;2023-03-31T15:54:00;4.47;;;1.40;;
69188;SDS011;56302;52.322;5.926;2023-03-31T15:59:02;7.03;;;2.03;;
69188;SDS011;56302;52.322;5.926;2023-03-31T16:01:29;5.85;;;1.80;;
69188;SDS011;56302;52.322;5.926;2023-03-31T16:04:05;8.73;;;2.20;;
69188;SDS011;56302;52.322;5.926;2023-03-31T16:06:42;5.75;;;1.60;;
69188;SDS011;56302;52.322;5.926;2023-03-31T16:11:57;14.93;;;2.03;;
69188;SDS011;56302;52.322;5.926;2023-03-31T16:14:27;5.60;;;1.70;;
69188;SDS011;56302;52.322;5.926;2023-03-31T16:17:01;6.72;;;2.17;;
69188;SDS011;56302;52.322;5.926;2023-03-31T16:19:42;5.65;;;1.70;;
69188;SDS011;56302;52.322;5.926;2023-03-31T16:22:18;6.25;;;1.40;;
69188;SDS011;56302;52.322;5.926;2023-03-31T16:24:47;5.63;;;1.40;;
69188;SDS011;56302;52.322;5.926;2023-03-31T16:27:13;3.45;;;1.35;;
69188;SDS011;56302;52.322;5.926;2023-03-31T16:29:39;4.53;;;1.55;;
69188;SDS011;56302;52.322;5.926;2023-03-31T16:32:09;3.47;;;1.50;;
69188;SDS011;56302;52.322;5.926;2023-03-31T16:34:50;5.35;;;1.63;;
69188;SDS011;56302;52.322;5.926;2023-03-31T16:37:19;6.05;;;1.90;;
69188;SDS011;56302;52.322;5.926;2023-03-31T16:39:45;4.78;;;1.55;;
69188;SDS011;56302;52.322;5.926;2023-03-31T16:42:11;5.60;;;1.50;;
69188;SDS011;56302;52.322;5.926;2023-03-31T16:44:36;3.77;;;1.50;;
69188;SDS011;56302;52.322;5.926;2023-03-31T16:47:02;5.20;;;1.83;;
69188;SDS011;56302;52.322;5.926;2023-03-31T16:49:27;5.20;;;1.60;;
69188;SDS011;56302;52.322;5.926;2023-03-31T16:51:53;4.53;;;1.30;;
69188;SDS011;56302;52.322;5.926;2023-03-31T16:54:18;4.63;;;1.60;;
69188;SDS011;56302;52.322;5.926;2023-03-31T16:56:44;3.25;;;1.20;;
69188;SDS011;56302;52.322;5.926;2023-03-31T16:59:11;3.72;;;1.30;;
69188;SDS011;56302;52.322;5.926;2023-03-31T17:01:37;5.28;;;1.80;;
69188;SDS011;56302;52.322;5.926;2023-03-31T17:04:03;3.15;;;1.20;;
69188;SDS011;56302;52.322;5.926;2023-03-31T17:06:29;4.30;;;1.47;;
69188;SDS011;56302;52.322;5.926;2023-03-31T17:08:54;6.57;;;1.60;;
69188;SDS011;56302;52.322;5.926;2023-03-31T17:11:20;5.23;;;1.40;;
69188;SDS011;56302;52.322;5.926;2023-03-31T17:13:46;5.90;;;1.38;;
69188;SDS011;56302;52.322;5.926;2023-03-31T17:16:13;4.13;;;1.45;;
69188;SDS011;56302;52.322;5.926;2023-03-31T17:18:38;5.00;;;1.57;;
69188;SDS011;56302;52.322;5.926;2023-03-31T17:21:05;5.88;;;1.40;;
69188;SDS011;56302;52.322;5.926;2023-03-31T17:23:33;5.90;;;1.50;;
69188;SDS011;56302;52.322;5.926;2023-03-31T17:26:00;4.20;;;1.13;;
69188;SDS011;56302;52.322;5.926;2023-03-31T17:28:26;6.25;;;1.70;;
69188;SDS011;56302;52.322;5.926;2023-03-31T17:30:52;2.95;;;1.30;;
69188;SDS011;56302;52.322;5.926;2023-03-31T17:33:18;5.00;;;1.42;;
69188;SDS011;56302;52.322;5.926;2023-03-31T17:35:44;3.10;;;1.37;;
69188;SDS011;56302;52.322;5.926;2023-03-31T17:38:10;2.65;;;1.40;;
69188;SDS011;56302;52.322;5.926;2023-03-31T17:40:38;2.83;;;1.20;;
69188;SDS011;56302;52.322;5.926;2023-03-31T17:43:04;5.18;;;1.27;;
69188;SDS011;56302;52.322;5.926;2023-03-31T17:45:30;3.97;;;1.40;;
69188;SDS011;56302;52.322;5.926;2023-03-31T17:47:57;3.58;;;1.17;;
69188;SDS011;56302;52.322;5.926;2023-03-31T17:50:23;2.83;;;1.15;;